createdAt,value
2019-01-16T00:00:20.674Z,16.65
2019-01-16T00:01:21.255Z,16.61
2019-01-16T00:02:21.874Z,16.60
2019-01-16T00:03:22.449Z,16.57
2019-01-16T00:04:23.019Z,16.64
2019-01-16T00:05:23.594Z,16.56
2019-01-16T00:06:24.168Z,16.50
2019-01-16T00:07:24.793Z,16.49
2019-01-16T00:08:25.367Z,16.53
2019-01-16T00:09:25.942Z,16.42
2019-01-16T00:10:26.609Z,16.46
2019-01-16T00:11:27.245Z,16.43
2019-01-16T00:12:27.767Z,16.42
2019-01-16T00:13:28.342Z,16.41
2019-01-16T00:14:28.915Z,16.47
2019-01-16T00:15:29.490Z,16.38
2019-01-16T00:16:30.063Z,16.33
2019-01-16T00:17:30.636Z,16.33
2019-01-16T00:18:31.259Z,16.31
2019-01-16T00:19:31.832Z,16.33
2019-01-16T00:20:32.408Z,16.35
2019-01-16T00:21:32.980Z,16.32
2019-01-16T00:22:33.556Z,16.35
2019-01-16T00:23:34.180Z,16.32
2019-01-16T00:24:34.754Z,16.36
2019-01-16T00:25:35.375Z,16.32
2019-01-16T00:26:35.948Z,16.24
2019-01-16T00:27:36.524Z,16.26
2019-01-16T00:28:37.096Z,16.20
2019-01-16T00:29:37.671Z,16.00
2019-01-16T00:30:38.442Z,16.05
2019-01-16T00:31:39.115Z,16.04
2019-01-16T00:32:39.687Z,16.05
2019-01-16T00:33:40.264Z,16.09
2019-01-16T00:34:40.837Z,16.10
2019-01-16T00:35:41.418Z,16.02
2019-01-16T00:36:42.029Z,16.05
2019-01-16T00:37:42.603Z,16.04
2019-01-16T00:38:43.175Z,16.08
2019-01-16T00:39:43.752Z,16.12
2019-01-16T00:40:44.322Z,16.00
2019-01-16T00:41:44.895Z,16.00
2019-01-16T00:42:45.568Z,15.95
2019-01-16T00:43:46.191Z,15.98
2019-01-16T00:44:46.763Z,15.94
2019-01-16T00:45:47.336Z,15.97
2019-01-16T00:46:47.960Z,15.86
2019-01-16T00:47:48.576Z,15.88
2019-01-16T00:48:49.299Z,15.94
2019-01-16T00:49:49.871Z,15.95
2019-01-16T00:50:50.444Z,15.94
2019-01-16T00:51:51.018Z,15.94
2019-01-16T00:52:51.593Z,15.97
2019-01-16T00:53:52.165Z,15.90
2019-01-16T00:54:52.739Z,15.97
2019-01-16T00:55:53.312Z,15.90
2019-01-16T00:56:53.884Z,15.80
2019-01-16T00:57:54.459Z,15.83
2019-01-16T00:58:55.042Z,15.83
2019-01-16T00:59:55.601Z,15.83
2019-01-16T01:00:56.174Z,15.86
2019-01-16T01:01:56.747Z,15.84
2019-01-16T01:02:57.319Z,15.84
2019-01-16T01:03:57.941Z,15.86
2019-01-16T01:04:58.515Z,15.80
2019-01-16T01:05:59.089Z,15.83
2019-01-16T01:06:59.664Z,15.86
2019-01-16T01:08:00.287Z,15.88
2019-01-16T01:09:00.860Z,15.90
2019-01-16T01:10:01.440Z,15.83
2019-01-16T01:11:02.007Z,15.83
2019-01-16T01:12:02.579Z,15.77
2019-01-16T01:13:03.151Z,15.88
2019-01-16T01:14:03.723Z,15.80
2019-01-16T01:15:04.295Z,15.72
2019-01-16T01:16:04.868Z,15.68
2019-01-16T01:17:05.440Z,15.72
2019-01-16T01:18:06.014Z,15.75
2019-01-16T01:19:06.584Z,15.77
2019-01-16T01:20:07.157Z,15.82
2019-01-16T01:21:07.729Z,15.83
2019-01-16T01:22:08.354Z,15.83
2019-01-16T01:23:08.930Z,15.70
2019-01-16T01:24:09.555Z,15.75
2019-01-16T01:25:10.128Z,15.72
2019-01-16T01:26:10.752Z,15.73
2019-01-16T01:27:11.326Z,15.68
2019-01-16T01:28:11.899Z,15.77
2019-01-16T01:29:12.473Z,15.75
2019-01-16T01:30:13.048Z,15.68
2019-01-16T01:31:13.622Z,15.70
2019-01-16T01:32:14.196Z,15.67
2019-01-16T01:33:14.820Z,15.70
2019-01-16T01:34:15.394Z,15.59
2019-01-16T01:35:15.968Z,15.67
2019-01-16T01:36:16.541Z,15.61
2019-01-16T01:37:17.116Z,15.72
2019-01-16T01:38:17.736Z,15.64
2019-01-16T01:39:18.308Z,15.65
2019-01-16T01:40:18.883Z,15.58
2019-01-16T01:41:19.455Z,15.61
2019-01-16T01:42:20.026Z,15.62
2019-01-16T01:43:20.659Z,15.62
2019-01-16T01:44:21.229Z,15.58
2019-01-16T01:45:21.807Z,15.62
2019-01-16T01:46:22.375Z,15.62
2019-01-16T01:47:22.948Z,15.75
2019-01-16T01:48:23.564Z,15.73
2019-01-16T01:49:24.181Z,15.70
2019-01-16T01:50:24.753Z,15.68
2019-01-16T01:51:25.326Z,15.68
2019-01-16T01:52:25.899Z,15.77
2019-01-16T01:53:26.522Z,15.77
2019-01-16T01:54:27.097Z,15.73
2019-01-16T01:55:27.669Z,15.76
2019-01-16T01:56:28.244Z,15.70
2019-01-16T01:57:28.817Z,15.70
2019-01-16T01:58:29.392Z,15.67
2019-01-16T01:59:29.966Z,15.76
2019-01-16T02:00:30.538Z,15.75
2019-01-16T02:01:31.161Z,15.70
2019-01-16T02:02:31.737Z,15.68
2019-01-16T02:03:32.360Z,15.64
2019-01-16T02:04:32.933Z,15.68
2019-01-16T02:05:33.506Z,15.58
2019-01-16T02:06:34.080Z,15.59
2019-01-16T02:07:34.654Z,15.59
2019-01-16T02:08:35.226Z,15.57
2019-01-16T02:09:35.808Z,15.55
2019-01-16T02:10:36.426Z,15.54
2019-01-16T02:11:36.998Z,15.54
2019-01-16T02:12:37.570Z,15.54
2019-01-16T02:13:38.144Z,15.54
2019-01-16T02:14:38.721Z,15.59
2019-01-16T02:15:39.352Z,15.57
2019-01-16T02:16:39.935Z,15.61
2019-01-16T02:17:40.547Z,15.59
2019-01-16T02:18:47.372Z,15.68
2019-01-16T02:19:42.696Z,15.70
2019-01-16T02:20:43.369Z,15.62
2019-01-16T02:21:43.964Z,15.59
2019-01-16T02:22:44.591Z,15.68
2019-01-16T02:23:45.171Z,15.68
2019-01-16T02:24:45.747Z,15.65
2019-01-16T02:25:46.319Z,15.54
2019-01-16T02:26:46.944Z,15.54
2019-01-16T02:27:47.570Z,15.49
2019-01-16T02:28:48.142Z,15.44
2019-01-16T02:29:48.715Z,15.43
2019-01-16T02:30:49.289Z,15.51
2019-01-16T02:31:49.861Z,15.46
2019-01-16T02:32:50.434Z,15.49
2019-01-16T02:33:51.008Z,15.47
2019-01-16T02:34:51.581Z,15.47
2019-01-16T02:35:52.155Z,15.51
2019-01-16T02:36:52.729Z,15.51
2019-01-16T02:37:53.301Z,15.46
2019-01-16T02:38:53.878Z,15.43
2019-01-16T02:39:54.500Z,15.52
2019-01-16T02:40:55.072Z,15.51
2019-01-16T02:41:55.644Z,15.42
2019-01-16T02:42:56.214Z,15.43
2019-01-16T02:43:56.788Z,15.51
2019-01-16T02:44:57.360Z,15.42
2019-01-16T02:45:57.937Z,15.54
2019-01-16T02:46:58.505Z,15.44
2019-01-16T02:47:59.086Z,15.46
2019-01-16T02:48:59.661Z,15.43
2019-01-16T02:50:00.305Z,15.43
2019-01-16T02:51:00.914Z,15.52
2019-01-16T02:52:01.541Z,15.51
2019-01-16T02:53:02.121Z,15.43
2019-01-16T02:54:02.698Z,15.47
2019-01-16T02:55:03.276Z,15.49
2019-01-16T02:56:03.852Z,15.47
2019-01-16T02:57:04.435Z,15.49
2019-01-16T02:58:05.014Z,15.43
2019-01-16T02:59:05.640Z,15.51
2019-01-16T03:00:06.266Z,15.46
2019-01-16T03:01:06.848Z,15.46
2019-01-16T03:02:07.434Z,15.42
2019-01-16T03:03:08.055Z,15.43
2019-01-16T03:04:08.634Z,15.47
2019-01-16T03:05:09.214Z,15.43
2019-01-16T03:06:09.790Z,15.49
2019-01-16T03:07:10.521Z,15.44
2019-01-16T03:08:11.099Z,15.52
2019-01-16T03:09:11.679Z,15.51
2019-01-16T03:10:12.259Z,15.49
2019-01-16T03:11:12.834Z,15.57
2019-01-16T03:12:13.410Z,15.46
2019-01-16T03:13:13.990Z,15.47
2019-01-16T03:14:14.570Z,15.49
2019-01-16T03:15:15.146Z,15.44
2019-01-16T03:16:15.772Z,15.42
2019-01-16T03:17:16.350Z,15.51
2019-01-16T03:18:16.926Z,15.44
2019-01-16T03:19:17.504Z,15.51
2019-01-16T03:20:18.133Z,15.46
2019-01-16T03:21:18.712Z,15.43
2019-01-16T03:22:19.290Z,15.46
2019-01-16T03:23:19.869Z,15.43
2019-01-16T03:24:20.443Z,15.47
2019-01-16T03:25:21.072Z,15.52
2019-01-16T03:26:21.650Z,15.49
2019-01-16T03:27:22.279Z,15.49
2019-01-16T03:28:22.856Z,15.54
2019-01-16T03:29:23.431Z,15.47
2019-01-16T03:30:24.012Z,15.55
2019-01-16T03:31:24.589Z,15.47
2019-01-16T03:32:25.182Z,15.52
2019-01-16T03:33:25.797Z,15.47
2019-01-16T03:34:26.373Z,15.46
2019-01-16T03:35:27.000Z,15.46
2019-01-16T03:36:27.580Z,15.52
2019-01-16T03:37:28.160Z,15.46
2019-01-16T03:38:28.785Z,15.47
2019-01-16T03:39:29.366Z,15.57
2019-01-16T03:40:30.008Z,15.49
2019-01-16T03:41:30.545Z,15.52
2019-01-16T03:42:31.127Z,15.47
2019-01-16T03:43:31.704Z,15.44
2019-01-16T03:44:32.285Z,15.42
2019-01-16T03:45:32.859Z,15.40
2019-01-16T03:46:33.436Z,15.33
2019-01-16T03:47:34.015Z,15.39
2019-01-16T03:48:34.592Z,15.46
2019-01-16T03:49:35.172Z,15.43
2019-01-16T03:50:35.900Z,15.43
2019-01-16T03:51:36.529Z,15.43
2019-01-16T03:52:37.307Z,15.39
2019-01-16T03:53:37.887Z,15.35
2019-01-16T03:54:38.464Z,15.37
2019-01-16T03:55:39.041Z,15.36
2019-01-16T03:56:39.619Z,15.35
2019-01-16T03:57:40.195Z,15.31
2019-01-16T03:58:40.774Z,15.31
2019-01-16T03:59:41.362Z,15.43
2019-01-16T04:00:41.929Z,15.31
2019-01-16T04:01:42.505Z,15.37
2019-01-16T04:02:43.084Z,15.33
2019-01-16T04:03:43.665Z,15.36
2019-01-16T04:04:44.242Z,15.42
2019-01-16T04:05:44.821Z,15.36
2019-01-16T04:06:45.399Z,15.36
2019-01-16T04:07:45.977Z,15.42
2019-01-16T04:08:46.555Z,15.36
2019-01-16T04:09:47.185Z,15.35
2019-01-16T04:10:47.762Z,15.33
2019-01-16T04:11:48.343Z,15.35
2019-01-16T04:12:48.969Z,15.42
2019-01-16T04:13:49.548Z,15.44
2019-01-16T04:14:50.127Z,15.33
2019-01-16T04:15:50.754Z,15.44
2019-01-16T04:16:51.389Z,15.40
2019-01-16T04:17:51.930Z,15.35
2019-01-16T04:18:52.500Z,15.43
2019-01-16T04:19:53.076Z,15.39
2019-01-16T04:20:53.661Z,15.46
2019-01-16T04:21:54.281Z,15.46
2019-01-16T04:22:54.856Z,15.40
2019-01-16T04:23:55.432Z,15.40
2019-01-16T04:24:56.012Z,15.43
2019-01-16T04:25:56.589Z,15.47
2019-01-16T04:26:58.416Z,15.51
2019-01-16T04:27:58.737Z,15.42
2019-01-16T04:28:59.518Z,15.47
2019-01-16T04:30:00.255Z,15.52
2019-01-16T04:31:00.836Z,15.46
2019-01-16T04:32:01.412Z,15.40
2019-01-16T04:33:01.991Z,15.42
2019-01-16T04:34:02.568Z,15.36
2019-01-16T04:35:03.147Z,15.43
2019-01-16T04:36:03.725Z,15.44
2019-01-16T04:37:04.301Z,15.35
2019-01-16T04:38:04.884Z,15.43
2019-01-16T04:39:10.517Z,15.35
2019-01-16T04:40:11.094Z,15.37
2019-01-16T04:41:11.673Z,15.33
2019-01-16T04:42:12.301Z,15.33
2019-01-16T04:43:12.879Z,15.36
2019-01-16T04:44:13.463Z,15.31
2019-01-16T04:45:14.035Z,15.35
2019-01-16T04:46:14.615Z,15.36
2019-01-16T04:47:15.192Z,15.36
2019-01-16T04:48:15.869Z,15.31
2019-01-16T04:49:16.497Z,15.31
2019-01-16T04:50:17.075Z,15.33
2019-01-16T04:51:17.653Z,15.29
2019-01-16T04:52:18.231Z,15.35
2019-01-16T04:53:18.810Z,15.33
2019-01-16T04:54:19.391Z,15.33
2019-01-16T04:55:19.965Z,15.25
2019-01-16T04:56:20.546Z,15.24
2019-01-16T04:57:21.121Z,15.21
2019-01-16T04:58:21.699Z,15.35
2019-01-16T04:59:22.326Z,15.25
2019-01-16T05:00:22.902Z,15.31
2019-01-16T05:01:23.482Z,15.29
2019-01-16T05:02:24.060Z,15.22
2019-01-16T05:03:24.639Z,15.21
2019-01-16T05:04:25.225Z,15.19
2019-01-16T05:05:25.792Z,15.28
2019-01-16T05:06:26.419Z,15.22
2019-01-16T05:07:27.047Z,15.27
2019-01-16T05:08:27.626Z,15.19
2019-01-16T05:09:28.206Z,15.15
2019-01-16T05:10:28.834Z,15.19
2019-01-16T05:11:29.412Z,15.17
2019-01-16T05:12:29.992Z,15.15
2019-01-16T05:13:30.569Z,15.18
2019-01-16T05:14:31.146Z,15.18
2019-01-16T05:15:31.724Z,15.18
2019-01-16T05:16:32.301Z,15.22
2019-01-16T05:17:32.879Z,15.17
2019-01-16T05:18:33.457Z,15.19
2019-01-16T05:19:38.534Z,15.17
2019-01-16T05:20:34.659Z,15.19
2019-01-16T05:21:35.237Z,15.18
2019-01-16T05:22:35.816Z,15.17
2019-01-16T05:23:36.394Z,15.18
2019-01-16T05:24:36.971Z,15.21
2019-01-16T05:25:37.551Z,15.19
2019-01-16T05:26:38.180Z,15.18
2019-01-16T05:27:38.761Z,15.17
2019-01-16T05:28:39.338Z,15.17
2019-01-16T05:29:39.948Z,15.18
2019-01-16T05:30:40.493Z,15.19
2019-01-16T05:31:41.071Z,15.17
2019-01-16T05:32:41.650Z,15.17
2019-01-16T05:33:42.231Z,15.17
2019-01-16T05:34:42.809Z,15.17
2019-01-16T05:35:43.385Z,15.18
2019-01-16T05:36:43.965Z,15.25
2019-01-16T05:37:44.543Z,15.22
2019-01-16T05:38:45.121Z,15.17
2019-01-16T05:39:45.701Z,15.15
2019-01-16T05:40:46.277Z,15.18
2019-01-16T05:41:46.857Z,15.10
2019-01-16T05:42:47.433Z,15.22
2019-01-16T05:43:48.010Z,15.18
2019-01-16T05:44:48.592Z,15.15
2019-01-16T05:45:49.170Z,15.17
2019-01-16T05:46:49.753Z,15.22
2019-01-16T05:47:50.374Z,15.15
2019-01-16T05:48:50.950Z,15.09
2019-01-16T05:49:51.528Z,15.10
2019-01-16T05:50:52.108Z,15.15
2019-01-16T05:51:52.687Z,15.11
2019-01-16T05:52:53.261Z,15.07
2019-01-16T05:53:53.840Z,15.14
2019-01-16T05:54:54.417Z,15.15
2019-01-16T05:55:54.994Z,15.19
2019-01-16T05:56:55.574Z,15.09
2019-01-16T05:57:56.151Z,15.09
2019-01-16T05:58:56.728Z,15.14
2019-01-16T05:59:57.304Z,15.09
2019-01-16T06:00:57.884Z,15.03
2019-01-16T06:01:58.463Z,15.10
2019-01-16T06:02:59.090Z,15.09
2019-01-16T06:03:59.669Z,15.15
2019-01-16T06:05:00.326Z,15.14
2019-01-16T06:06:00.855Z,15.17
2019-01-16T06:07:01.484Z,15.15
2019-01-16T06:08:02.065Z,15.14
2019-01-16T06:09:02.645Z,15.11
2019-01-16T06:10:03.238Z,15.14
2019-01-16T06:11:03.847Z,15.10
2019-01-16T06:12:04.430Z,15.10
2019-01-16T06:13:05.055Z,15.17
2019-01-16T06:14:05.631Z,15.14
2019-01-16T06:15:06.261Z,15.14
2019-01-16T06:16:06.840Z,15.09
2019-01-16T06:17:07.417Z,15.03
2019-01-16T06:18:07.995Z,15.00
2019-01-16T06:19:08.573Z,15.03
2019-01-16T06:20:09.199Z,14.92
2019-01-16T06:21:09.778Z,14.92
2019-01-16T06:22:10.356Z,14.91
2019-01-16T06:23:10.933Z,14.79
2019-01-16T06:24:11.560Z,14.78
2019-01-16T06:25:12.138Z,14.77
2019-01-16T06:26:12.716Z,14.73
2019-01-16T06:27:13.341Z,14.78
2019-01-16T06:28:13.919Z,14.82
2019-01-16T06:29:14.508Z,14.78
2019-01-16T06:30:15.189Z,14.77
2019-01-16T06:31:15.812Z,14.77
2019-01-16T06:32:16.439Z,14.79
2019-01-16T06:33:17.034Z,14.82
2019-01-16T06:34:17.612Z,14.78
2019-01-16T06:35:18.188Z,14.73
2019-01-16T06:36:18.766Z,14.77
2019-01-16T06:37:19.345Z,14.77
2019-01-16T06:38:19.924Z,14.68
2019-01-16T06:39:20.504Z,14.79
2019-01-16T06:40:21.081Z,14.72
2019-01-16T06:41:21.658Z,14.72
2019-01-16T06:42:22.273Z,14.82
2019-01-16T06:43:22.848Z,14.72
2019-01-16T06:44:23.421Z,14.73
2019-01-16T06:45:23.994Z,14.79
2019-01-16T06:46:24.565Z,14.73
2019-01-16T06:47:25.288Z,14.82
2019-01-16T06:48:25.911Z,14.89
2019-01-16T06:49:26.483Z,14.89
2019-01-16T06:50:27.055Z,14.84
2019-01-16T06:51:27.678Z,14.82
2019-01-16T06:52:28.248Z,14.86
2019-01-16T06:53:28.822Z,14.89
2019-01-16T06:54:29.394Z,14.82
2019-01-16T06:55:29.971Z,14.88
2019-01-16T06:56:30.542Z,14.79
2019-01-16T06:57:31.114Z,14.85
2019-01-16T06:58:31.685Z,14.84
2019-01-16T06:59:32.258Z,14.78
2019-01-16T07:00:32.829Z,14.77
2019-01-16T07:01:33.406Z,14.78
2019-01-16T07:02:33.976Z,14.79
2019-01-16T07:03:34.549Z,14.86
2019-01-16T07:04:35.175Z,14.73
2019-01-16T07:05:35.791Z,14.86
2019-01-16T07:06:36.365Z,14.85
2019-01-16T07:07:36.987Z,14.88
2019-01-16T07:08:37.608Z,14.85
2019-01-16T07:09:38.183Z,14.86
2019-01-16T07:10:38.754Z,14.84
2019-01-16T07:11:39.329Z,14.82
2019-01-16T07:12:39.901Z,14.85
2019-01-16T07:13:40.676Z,14.79
2019-01-16T07:14:41.250Z,14.82
2019-01-16T07:15:41.823Z,14.85
2019-01-16T07:16:42.394Z,14.85
2019-01-16T07:17:42.965Z,14.85
2019-01-16T07:18:43.536Z,14.82
2019-01-16T07:19:44.110Z,14.85
2019-01-16T07:20:44.684Z,14.84
2019-01-16T07:21:45.258Z,14.88
2019-01-16T07:22:45.827Z,14.85
2019-01-16T07:23:46.450Z,14.89
2019-01-16T07:24:47.024Z,14.91
2019-01-16T07:25:47.596Z,14.85
2019-01-16T07:26:48.170Z,14.84
2019-01-16T07:27:48.793Z,14.85
2019-01-16T07:28:49.365Z,14.84
2019-01-16T07:29:49.938Z,14.82
2019-01-16T07:30:50.568Z,14.81
2019-01-16T07:31:51.094Z,14.85
2019-01-16T07:32:51.666Z,14.85
2019-01-16T07:33:52.242Z,14.85
2019-01-16T07:34:52.809Z,14.81
2019-01-16T07:35:53.384Z,14.89
2019-01-16T07:36:53.956Z,14.85
2019-01-16T07:37:54.529Z,14.81
2019-01-16T07:38:55.101Z,14.79
2019-01-16T07:39:55.673Z,14.79
2019-01-16T07:40:56.246Z,14.81
2019-01-16T07:41:56.822Z,14.78
2019-01-16T07:42:57.440Z,14.84
2019-01-16T07:43:58.014Z,14.84
2019-01-16T07:44:58.588Z,14.89
2019-01-16T07:45:59.159Z,14.88
2019-01-16T07:46:59.734Z,14.84
2019-01-16T07:48:00.307Z,14.79
2019-01-16T07:49:00.881Z,14.85
2019-01-16T07:50:01.540Z,14.82
2019-01-16T07:51:02.110Z,14.82
2019-01-16T07:52:02.683Z,14.86
2019-01-16T07:53:03.254Z,14.85
2019-01-16T07:54:03.829Z,14.82
2019-01-16T07:55:04.441Z,14.82
2019-01-16T07:56:05.014Z,14.78
2019-01-16T07:57:05.585Z,14.88
2019-01-16T07:58:06.157Z,14.84
2019-01-16T07:59:06.729Z,14.85
2019-01-16T08:00:07.300Z,14.84
2019-01-16T08:01:07.871Z,14.82
2019-01-16T08:02:08.441Z,14.84
2019-01-16T08:03:09.011Z,14.79
2019-01-16T08:04:09.582Z,14.84
2019-01-16T08:05:10.153Z,14.77
2019-01-16T08:06:10.725Z,14.77
2019-01-16T08:07:11.300Z,14.79
2019-01-16T08:08:11.872Z,14.82
2019-01-16T08:09:12.444Z,14.79
2019-01-16T08:10:13.015Z,14.85
2019-01-16T08:11:13.586Z,14.78
2019-01-16T08:12:14.161Z,14.77
2019-01-16T08:13:14.731Z,14.77
2019-01-16T08:14:15.303Z,14.85
2019-01-16T08:15:15.878Z,14.72
2019-01-16T08:16:16.493Z,14.73
2019-01-16T08:17:17.066Z,14.78
2019-01-16T08:18:17.690Z,14.69
2019-01-16T08:19:18.262Z,14.73
2019-01-16T08:20:24.821Z,14.68
2019-01-16T08:21:20.401Z,14.79
2019-01-16T08:22:20.972Z,14.69
2019-01-16T08:23:21.546Z,14.72
2019-01-16T08:24:22.115Z,14.85
2019-01-16T08:25:22.689Z,14.77
2019-01-16T08:26:23.263Z,14.72
2019-01-16T08:27:23.835Z,14.82
2019-01-16T08:28:24.410Z,14.70
2019-01-16T08:29:24.982Z,14.78
2019-01-16T08:30:25.556Z,14.79
2019-01-16T08:31:26.128Z,14.70
2019-01-16T08:32:26.788Z,14.81
2019-01-16T08:33:27.363Z,14.69
2019-01-16T08:34:27.939Z,14.70
2019-01-16T08:35:28.510Z,14.70
2019-01-16T08:36:29.105Z,14.84
2019-01-16T08:37:29.678Z,14.72
2019-01-16T08:38:30.251Z,14.72
2019-01-16T08:39:30.824Z,14.70
2019-01-16T08:40:31.399Z,14.72
2019-01-16T08:41:31.968Z,14.82
2019-01-16T08:42:32.540Z,14.73
2019-01-16T08:43:33.111Z,14.77
2019-01-16T08:44:33.689Z,14.72
2019-01-16T08:45:34.257Z,14.72
2019-01-16T08:46:34.826Z,14.72
2019-01-16T08:47:35.398Z,14.70
2019-01-16T08:48:35.970Z,14.72
2019-01-16T08:49:36.543Z,14.72
2019-01-16T08:50:37.167Z,14.72
2019-01-16T08:51:37.735Z,14.68
2019-01-16T08:52:38.310Z,14.68
2019-01-16T08:53:38.883Z,14.68
2019-01-16T08:54:39.497Z,14.63
2019-01-16T08:55:40.071Z,14.59
2019-01-16T08:56:40.643Z,14.54
2019-01-16T08:57:41.213Z,14.58
2019-01-16T08:58:41.786Z,14.59
2019-01-16T08:59:42.360Z,14.60
2019-01-16T09:00:42.928Z,14.53
2019-01-16T09:01:43.499Z,14.48
2019-01-16T09:02:44.071Z,14.45
2019-01-16T09:03:44.641Z,14.41
2019-01-16T09:04:45.213Z,14.51
2019-01-16T09:05:45.834Z,14.53
2019-01-16T09:06:46.408Z,14.51
2019-01-16T09:07:46.981Z,14.47
2019-01-16T09:08:47.554Z,14.45
2019-01-16T09:09:48.144Z,14.55
2019-01-16T09:10:48.793Z,14.53
2019-01-16T09:11:49.371Z,14.55
2019-01-16T09:12:49.940Z,14.58
2019-01-16T09:13:50.513Z,14.55
2019-01-16T09:14:51.136Z,14.68
2019-01-16T09:15:51.707Z,14.60
2019-01-16T09:16:52.281Z,14.63
2019-01-16T09:17:52.853Z,14.63
2019-01-16T09:18:53.477Z,14.58
2019-01-16T09:19:54.048Z,14.59
2019-01-16T09:20:54.621Z,14.62
2019-01-16T09:21:55.194Z,14.59
2019-01-16T09:22:55.767Z,14.60
2019-01-16T09:23:56.341Z,14.54
2019-01-16T09:24:56.914Z,14.58
2019-01-16T09:25:57.490Z,14.60
2019-01-16T09:26:58.061Z,14.60
2019-01-16T09:27:58.682Z,14.66
2019-01-16T09:28:59.254Z,14.53
2019-01-16T09:29:59.826Z,14.55
2019-01-16T09:31:00.596Z,14.55
2019-01-16T09:32:01.168Z,14.63
2019-01-16T09:33:01.740Z,14.68
2019-01-16T09:34:02.314Z,14.65
2019-01-16T09:35:02.937Z,14.63
2019-01-16T09:36:03.506Z,14.65
2019-01-16T09:37:04.078Z,14.59
2019-01-16T09:38:04.650Z,14.55
2019-01-16T09:39:05.221Z,14.58
2019-01-16T09:40:05.794Z,14.65
2019-01-16T09:41:06.363Z,14.59
2019-01-16T09:42:06.935Z,14.55
2019-01-16T09:43:07.506Z,14.59
2019-01-16T09:44:08.078Z,14.58
2019-01-16T09:45:08.699Z,14.53
2019-01-16T09:46:09.270Z,14.62
2019-01-16T09:47:09.844Z,14.55
2019-01-16T09:48:10.466Z,14.53
2019-01-16T09:49:11.106Z,14.55
2019-01-16T09:50:11.627Z,14.58
2019-01-16T09:51:12.197Z,14.58
2019-01-16T09:52:12.770Z,14.55
2019-01-16T09:53:13.343Z,14.43
2019-01-16T09:54:13.964Z,14.48
2019-01-16T09:55:14.535Z,14.47
2019-01-16T09:56:15.108Z,14.51
2019-01-16T09:57:15.680Z,14.50
2019-01-16T09:58:16.250Z,14.50
2019-01-16T09:59:16.825Z,14.50
2019-01-16T10:00:17.395Z,14.50
2019-01-16T10:01:18.014Z,14.51
2019-01-16T10:02:18.552Z,14.45
2019-01-16T10:03:19.116Z,14.44
2019-01-16T10:04:24.744Z,14.54
2019-01-16T10:05:25.507Z,14.54
2019-01-16T10:06:26.080Z,14.53
2019-01-16T10:07:26.652Z,14.62
2019-01-16T10:08:27.223Z,14.47
2019-01-16T10:09:27.797Z,14.55
2019-01-16T10:10:28.419Z,14.45
2019-01-16T10:11:28.991Z,14.37
2019-01-16T10:12:29.565Z,14.48
2019-01-16T10:13:30.136Z,14.50
2019-01-16T10:14:30.711Z,14.51
2019-01-16T10:15:31.282Z,14.55
2019-01-16T10:16:31.856Z,14.53
2019-01-16T10:17:32.425Z,14.51
2019-01-16T10:18:33.049Z,14.58
2019-01-16T10:19:33.623Z,14.62
2019-01-16T10:20:34.193Z,14.51
2019-01-16T10:21:34.765Z,14.59
2019-01-16T10:22:35.337Z,14.53
2019-01-16T10:23:35.907Z,14.63
2019-01-16T10:24:36.479Z,14.63
2019-01-16T10:25:37.050Z,14.63
2019-01-16T10:26:37.620Z,14.63
2019-01-16T10:27:38.192Z,14.60
2019-01-16T10:28:38.763Z,14.62
2019-01-16T10:29:40.636Z,14.60
2019-01-16T10:30:40.949Z,14.63
2019-01-16T10:31:41.522Z,14.59
2019-01-16T10:32:42.093Z,14.60
2019-01-16T10:33:42.666Z,14.62
2019-01-16T10:34:43.239Z,14.59
2019-01-16T10:35:43.809Z,14.63
2019-01-16T10:36:44.380Z,14.59
2019-01-16T10:37:44.951Z,14.60
2019-01-16T10:38:45.523Z,14.55
2019-01-16T10:39:46.095Z,14.59
2019-01-16T10:40:46.715Z,14.62
2019-01-16T10:41:47.288Z,14.65
2019-01-16T10:42:47.862Z,14.63
2019-01-16T10:43:48.454Z,14.72
2019-01-16T10:44:49.057Z,14.62
2019-01-16T10:45:49.639Z,14.68
2019-01-16T10:46:50.209Z,14.65
2019-01-16T10:47:50.770Z,14.63
2019-01-16T10:48:51.341Z,14.63
2019-01-16T10:49:51.911Z,14.68
2019-01-16T10:50:52.536Z,14.63
2019-01-16T10:51:53.110Z,14.70
2019-01-16T10:52:53.685Z,14.68
2019-01-16T10:53:54.264Z,14.69
2019-01-16T10:54:54.838Z,14.70
2019-01-16T10:55:55.412Z,14.79
2019-01-16T10:56:56.039Z,14.69
2019-01-16T10:57:56.612Z,14.73
2019-01-16T10:58:57.187Z,14.70
2019-01-16T10:59:57.760Z,14.77
2019-01-16T11:00:58.336Z,14.72
2019-01-16T11:01:58.963Z,14.81
2019-01-16T11:02:59.538Z,14.77
2019-01-16T11:04:00.119Z,14.84
2019-01-16T11:05:00.694Z,14.82
2019-01-16T11:06:01.472Z,14.85
2019-01-16T11:07:02.148Z,14.84
2019-01-16T11:08:02.730Z,14.86
2019-01-16T11:09:03.301Z,14.89
2019-01-16T11:10:03.881Z,14.94
2019-01-16T11:11:04.501Z,14.97
2019-01-16T11:12:05.078Z,14.91
2019-01-16T11:13:05.656Z,14.86
2019-01-16T11:14:06.232Z,14.94
2019-01-16T11:15:06.859Z,14.94
2019-01-16T11:16:07.436Z,14.89
2019-01-16T11:17:08.013Z,14.97
2019-01-16T11:18:08.594Z,14.86
2019-01-16T11:19:09.168Z,14.89
2019-01-16T11:20:09.747Z,14.92
2019-01-16T11:21:11.182Z,14.91
2019-01-16T11:22:11.884Z,14.85
2019-01-16T11:23:12.459Z,14.84
2019-01-16T11:24:13.036Z,14.96
2019-01-16T11:25:13.615Z,14.92
2019-01-16T11:26:14.191Z,14.89
2019-01-16T11:27:14.769Z,14.99
2019-01-16T11:28:15.343Z,15.00
2019-01-16T11:29:15.922Z,15.00
2019-01-16T11:30:16.499Z,15.04
2019-01-16T11:31:17.075Z,14.99
2019-01-16T11:32:17.651Z,15.09
2019-01-16T11:33:18.425Z,15.11
2019-01-16T11:34:19.004Z,15.14
2019-01-16T11:35:19.630Z,15.15
2019-01-16T11:36:20.209Z,15.14
2019-01-16T11:37:20.819Z,15.11
2019-01-16T11:38:21.363Z,15.19
2019-01-16T11:39:21.939Z,15.14
2019-01-16T11:40:22.520Z,15.18
2019-01-16T11:41:23.096Z,15.14
2019-01-16T11:42:23.673Z,15.15
2019-01-16T11:43:24.252Z,15.21
2019-01-16T11:44:24.828Z,15.29
2019-01-16T11:45:25.407Z,15.25
2019-01-16T11:46:25.985Z,15.33
2019-01-16T11:47:26.568Z,15.31
2019-01-16T11:48:27.144Z,15.43
2019-01-16T11:49:27.722Z,15.46
2019-01-16T11:50:28.311Z,15.47
2019-01-16T11:51:33.668Z,15.47
2019-01-16T11:52:30.510Z,15.47
2019-01-16T11:53:31.087Z,15.54
2019-01-16T11:54:31.665Z,15.61
2019-01-16T11:55:32.295Z,15.68
2019-01-16T11:56:32.871Z,15.58
2019-01-16T11:57:33.499Z,15.61
2019-01-16T11:58:34.075Z,15.65
2019-01-16T11:59:34.659Z,15.67
2019-01-16T12:00:35.241Z,15.59
2019-01-16T12:01:35.862Z,15.72
2019-01-16T12:02:38.619Z,15.61
2019-01-16T12:03:38.009Z,15.61
2019-01-16T12:04:38.591Z,15.65
2019-01-16T12:05:39.169Z,15.61
2019-01-16T12:06:39.747Z,15.54
2019-01-16T12:07:40.326Z,15.58
2019-01-16T12:08:40.903Z,15.47
2019-01-16T12:09:41.725Z,15.44
2019-01-16T12:10:42.302Z,15.51
2019-01-16T12:11:42.886Z,15.51
2019-01-16T12:12:43.510Z,15.42
2019-01-16T12:13:44.181Z,15.51
2019-01-16T12:14:44.813Z,15.44
2019-01-16T12:15:45.339Z,15.42
2019-01-16T12:16:45.918Z,15.52
2019-01-16T12:17:46.493Z,15.42
2019-01-16T12:18:47.070Z,15.54
2019-01-16T12:19:47.649Z,15.39
2019-01-16T12:20:48.277Z,15.39
2019-01-16T12:21:48.905Z,15.44
2019-01-16T12:22:49.481Z,15.37
2019-01-16T12:23:50.059Z,15.39
2019-01-16T12:24:50.635Z,15.43
2019-01-16T12:25:51.213Z,15.37
2019-01-16T12:26:51.841Z,15.35
2019-01-16T12:27:52.469Z,15.27
2019-01-16T12:28:53.053Z,15.29
2019-01-16T12:29:53.666Z,15.28
2019-01-16T12:30:54.295Z,15.25
2019-01-16T12:31:54.922Z,15.35
2019-01-16T12:32:55.550Z,15.31
2019-01-16T12:33:56.126Z,15.24
2019-01-16T12:34:56.747Z,15.28
2019-01-16T12:35:57.328Z,15.28
2019-01-16T12:36:57.906Z,15.18
2019-01-16T12:37:58.483Z,15.21
2019-01-16T12:38:59.061Z,15.21
2019-01-16T12:39:59.641Z,15.15
2019-01-16T12:41:00.217Z,15.17
2019-01-16T12:42:00.794Z,15.27
2019-01-16T12:43:01.374Z,15.25
2019-01-16T12:44:01.951Z,15.33
2019-01-16T12:45:02.530Z,15.27
2019-01-16T12:46:03.258Z,15.29
2019-01-16T12:47:03.838Z,15.37
2019-01-16T12:48:09.467Z,15.29
2019-01-16T12:49:10.046Z,15.33
2019-01-16T12:50:10.672Z,15.29
2019-01-16T12:51:11.250Z,15.29
2019-01-16T12:52:11.826Z,15.27
2019-01-16T12:53:12.404Z,15.33
2019-01-16T12:54:12.983Z,15.28
2019-01-16T12:55:13.560Z,15.27
2019-01-16T12:56:14.136Z,15.24
2019-01-16T12:57:14.715Z,15.21
2019-01-16T12:58:15.292Z,15.25
2019-01-16T12:59:15.869Z,15.14
2019-01-16T13:00:16.444Z,15.15